createdAt,value
2018-05-14T00:02:22.694Z,299.40
2018-05-14T00:04:57.302Z,316.60
2018-05-14T00:07:33.431Z,300.07
2018-05-14T00:10:07.961Z,311.23
2018-05-14T00:12:42.616Z,322.07
2018-05-14T00:15:17.952Z,333.73
2018-05-14T00:17:52.549Z,328.23
2018-05-14T00:20:27.304Z,338.17
2018-05-14T00:23:01.900Z,346.10
2018-05-14T00:25:37.365Z,356.57
2018-05-14T00:28:11.970Z,341.40
2018-05-14T00:30:46.615Z,313.10
2018-05-14T00:33:21.261Z,315.37
2018-05-14T00:35:55.975Z,350.97
2018-05-14T00:38:30.726Z,332.57
2018-05-14T00:41:06.105Z,335.33
2018-05-14T00:43:41.438Z,341.57
2018-05-14T00:46:16.132Z,367.27
2018-05-14T00:48:50.702Z,355.80
2018-05-14T00:51:26.181Z,359.90
2018-05-14T00:54:00.874Z,362.13
2018-05-14T00:56:35.690Z,375.40
2018-05-14T00:59:10.235Z,347.77
2018-05-14T01:01:45.017Z,384.53
2018-05-14T01:04:20.454Z,405.20
2018-05-14T01:06:55.221Z,405.33
2018-05-14T01:09:30.062Z,400.10
2018-05-14T01:12:04.775Z,422.87
2018-05-14T01:14:39.577Z,412.33
2018-05-14T01:17:15.130Z,392.07
2018-05-14T01:19:49.791Z,402.57
2018-05-14T01:22:24.460Z,389.07
2018-05-14T01:25:03.330Z,400.57
2018-05-14T01:27:37.975Z,407.13
2018-05-14T01:30:12.607Z,389.43
2018-05-14T01:32:48.453Z,375.77
2018-05-14T01:35:23.267Z,384.67
2018-05-14T01:37:58.819Z,392.70
2018-05-14T01:40:33.423Z,400.83
2018-05-14T01:43:07.978Z,398.27
2018-05-14T01:45:42.638Z,413.70
2018-05-14T01:48:17.271Z,372.80
2018-05-14T01:50:52.228Z,394.63
2018-05-14T01:53:27.054Z,400.43
2018-05-14T01:56:01.725Z,386.80
2018-05-14T01:58:37.059Z,421.10
2018-05-14T02:01:11.706Z,414.70
2018-05-14T02:03:46.341Z,424.00
2018-05-14T02:06:21.060Z,415.53
2018-05-14T02:08:55.644Z,388.27
2018-05-14T02:11:30.471Z,411.23
2018-05-14T02:14:05.063Z,375.20
2018-05-14T02:16:39.761Z,341.40
2018-05-14T02:19:14.538Z,374.30
2018-05-14T02:21:49.898Z,357.13
2018-05-14T02:24:25.451Z,361.90
2018-05-14T02:27:00.797Z,368.70
2018-05-14T02:29:35.448Z,387.93
2018-05-14T02:32:10.047Z,385.43
2018-05-14T02:34:44.690Z,349.50
2018-05-14T02:37:19.319Z,379.77
2018-05-14T02:39:54.040Z,430.33
2018-05-14T02:42:28.936Z,398.40
2018-05-14T02:45:03.322Z,375.07
2018-05-14T02:47:37.884Z,344.07
2018-05-14T02:50:12.640Z,349.33
2018-05-14T02:52:47.273Z,344.33
2018-05-14T02:55:21.870Z,365.20
2018-05-14T02:57:56.568Z,353.00
2018-05-14T03:00:31.336Z,338.63
2018-05-14T03:03:06.766Z,342.77
2018-05-14T03:05:42.210Z,354.60
2018-05-14T03:08:16.900Z,341.97
2018-05-14T03:10:51.601Z,346.33
2018-05-14T03:13:26.173Z,329.17
2018-05-14T03:16:00.761Z,290.80
2018-05-14T03:18:35.578Z,298.00
2018-05-14T03:21:10.173Z,297.23
2018-05-14T03:23:44.788Z,298.97
2018-05-14T03:26:19.454Z,310.30
2018-05-14T03:28:55.706Z,313.50
2018-05-14T03:31:30.484Z,310.90
2018-05-14T03:34:06.035Z,313.07
2018-05-14T03:36:40.806Z,290.33
2018-05-14T03:39:15.382Z,288.03
2018-05-14T03:41:50.024Z,259.27
2018-05-14T03:44:24.742Z,255.10
2018-05-14T03:46:59.304Z,232.23
2018-05-14T03:49:33.886Z,242.40
2018-05-14T03:52:08.487Z,243.07
2018-05-14T03:54:44.081Z,249.50
2018-05-14T03:57:18.825Z,243.73
2018-05-14T04:00:04.812Z,252.20
2018-05-14T04:02:50.872Z,244.73
2018-05-14T04:05:36.859Z,237.10
2018-05-14T04:08:11.591Z,257.20
2018-05-14T04:10:46.308Z,273.80
2018-05-14T04:13:20.943Z,263.37
2018-05-14T04:15:55.574Z,251.20
2018-05-14T04:18:30.193Z,256.07
2018-05-14T04:21:04.547Z,252.47
2018-05-14T04:23:39.333Z,233.63
2018-05-14T04:26:14.133Z,239.97
2018-05-14T04:28:49.549Z,258.47
2018-05-14T04:31:24.055Z,232.03
2018-05-14T04:34:03.836Z,255.80
2018-05-14T04:36:38.380Z,282.67
2018-05-14T04:39:13.032Z,253.00
2018-05-14T04:41:48.402Z,268.60
2018-05-14T04:44:23.372Z,266.20
2018-05-14T04:46:58.055Z,261.97
2018-05-14T04:49:32.746Z,280.73
2018-05-14T04:52:07.533Z,271.63
2018-05-14T04:54:42.154Z,275.37
2018-05-14T04:57:16.743Z,263.97
2018-05-14T04:59:52.899Z,243.33
2018-05-14T05:02:27.508Z,256.73
2018-05-14T05:05:02.193Z,244.70
2018-05-14T05:07:36.882Z,245.57
2018-05-14T05:10:11.535Z,248.40
2018-05-14T05:12:46.180Z,241.33
2018-05-14T05:15:20.804Z,242.67
2018-05-14T05:17:57.453Z,251.07
2018-05-14T05:20:32.298Z,254.20
2018-05-14T05:23:07.091Z,235.00
2018-05-14T05:25:41.740Z,225.80
2018-05-14T05:28:16.448Z,232.10
2018-05-14T05:30:51.335Z,244.80
2018-05-14T05:33:26.266Z,257.30
2018-05-14T05:36:01.164Z,253.53
2018-05-14T05:38:35.945Z,246.27
2018-05-14T05:41:10.629Z,247.70
2018-05-14T05:43:45.313Z,252.23
2018-05-14T05:46:19.954Z,236.77
2018-05-14T05:48:54.798Z,223.87
2018-05-14T05:51:29.462Z,224.67
2018-05-14T05:54:04.309Z,239.53
2018-05-14T05:56:39.644Z,228.33
2018-05-14T05:59:15.239Z,214.43
2018-05-14T06:01:44.203Z,216.27
2018-05-14T06:04:13.360Z,220.27
2018-05-14T06:06:43.142Z,207.33
2018-05-14T06:09:13.201Z,211.40
2018-05-14T06:11:42.582Z,223.63
2018-05-14T06:14:11.878Z,204.93
2018-05-14T06:16:41.629Z,195.70
2018-05-14T06:19:11.747Z,187.67
2018-05-14T06:21:41.622Z,195.10
2018-05-14T06:24:10.693Z,199.30
2018-05-14T06:26:39.715Z,182.80
2018-05-14T06:29:08.899Z,178.07
2018-05-14T06:31:38.039Z,188.93
2018-05-14T06:34:07.142Z,173.83
2018-05-14T06:36:41.887Z,170.57
2018-05-14T06:39:16.721Z,192.13
2018-05-14T06:41:51.537Z,177.33
2018-05-14T06:44:26.257Z,189.67
2018-05-14T06:47:01.072Z,166.10
2018-05-14T06:49:35.748Z,176.73
2018-05-14T06:52:10.348Z,157.43
2018-05-14T06:54:44.978Z,154.47
2018-05-14T06:57:19.638Z,159.43
2018-05-14T06:59:54.654Z,151.50
2018-05-14T07:02:29.395Z,153.63
2018-05-14T07:05:04.268Z,151.00
2018-05-14T07:07:38.840Z,141.20
2018-05-14T07:10:13.457Z,135.60
2018-05-14T07:12:48.953Z,133.03
2018-05-14T07:15:23.683Z,133.37
2018-05-14T07:17:58.272Z,132.03
2018-05-14T07:20:32.968Z,116.33
2018-05-14T07:23:07.587Z,114.60
2018-05-14T07:25:42.270Z,103.77
2018-05-14T07:28:16.961Z,108.20
2018-05-14T07:30:46.735Z,104.20
2018-05-14T07:33:15.701Z,111.03
2018-05-14T07:35:50.297Z,103.07
2018-05-14T07:38:25.109Z,110.47
2018-05-14T07:41:00.172Z,101.97
2018-05-14T07:43:35.649Z,97.70
2018-05-14T07:46:10.557Z,96.30
2018-05-14T07:48:46.138Z,94.57
2018-05-14T07:51:20.912Z,102.13
2018-05-14T07:53:55.586Z,100.70
2018-05-14T07:56:30.294Z,100.00
2018-05-14T07:59:04.647Z,96.27
2018-05-14T08:01:39.372Z,89.83
2018-05-14T08:04:14.830Z,93.50
2018-05-14T08:06:49.599Z,90.50
2018-05-14T08:09:24.185Z,88.57
2018-05-14T08:11:58.964Z,86.40
2018-05-14T08:14:33.628Z,85.33
2018-05-14T08:17:08.551Z,87.43
2018-05-14T08:19:43.225Z,84.87
2018-05-14T08:22:18.987Z,85.17
2018-05-14T08:24:54.586Z,85.03
2018-05-14T08:27:29.364Z,79.70
2018-05-14T08:30:03.391Z,87.57
2018-05-14T08:32:38.145Z,90.03
2018-05-14T08:35:12.948Z,84.53
2018-05-14T08:37:47.790Z,88.83
2018-05-14T08:40:23.352Z,88.80
2018-05-14T08:42:58.899Z,90.00
2018-05-14T08:45:33.621Z,92.17
2018-05-14T08:48:08.640Z,84.77
2018-05-14T08:50:43.486Z,83.23
2018-05-14T08:53:18.429Z,84.03
2018-05-14T08:55:53.262Z,80.20
2018-05-14T08:58:28.912Z,84.87
2018-05-14T09:01:04.308Z,77.47
2018-05-14T09:03:39.151Z,76.43
2018-05-14T09:06:13.977Z,77.70
2018-05-14T09:08:48.863Z,70.90
2018-05-14T09:11:23.906Z,74.30
2018-05-14T09:13:59.495Z,73.60
2018-05-14T09:16:39.121Z,82.23
2018-05-14T09:19:14.016Z,82.53
2018-05-14T09:21:49.673Z,83.63
2018-05-14T09:24:24.272Z,85.77
2018-05-14T09:26:58.897Z,78.13
2018-05-14T09:29:34.776Z,74.40
2018-05-14T09:32:10.169Z,80.10
2018-05-14T09:34:45.645Z,74.90
2018-05-14T09:37:20.386Z,72.97
2018-05-14T09:39:55.390Z,77.20
2018-05-14T09:42:31.061Z,76.67
2018-05-14T09:45:05.688Z,75.80
2018-05-14T09:47:40.489Z,75.43
2018-05-14T09:50:16.021Z,75.53
2018-05-14T09:52:50.834Z,84.63
2018-05-14T09:55:25.457Z,76.73
2018-05-14T09:58:00.190Z,71.17
2018-05-14T10:00:34.716Z,72.20
2018-05-14T10:03:10.204Z,72.30
2018-05-14T10:05:44.976Z,79.40
2018-05-14T10:08:14.923Z,68.97
2018-05-14T10:10:49.544Z,72.13
2018-05-14T10:13:24.203Z,76.37
2018-05-14T10:15:58.740Z,73.00
2018-05-14T10:18:33.430Z,69.73
2018-05-14T10:21:08.006Z,67.23
2018-05-14T10:23:42.658Z,66.63
2018-05-14T10:26:18.137Z,68.70
2018-05-14T10:28:53.089Z,66.67
2018-05-14T10:31:27.666Z,63.57
2018-05-14T10:34:02.278Z,69.93
2018-05-14T10:36:36.900Z,66.90
2018-05-14T10:39:11.712Z,67.23
2018-05-14T10:41:46.381Z,58.50
2018-05-14T10:44:27.116Z,60.83
2018-05-14T10:47:01.902Z,56.20
2018-05-14T10:49:36.679Z,66.00
2018-05-14T10:52:11.567Z,70.97
2018-05-14T10:54:46.334Z,63.87
2018-05-14T10:57:21.667Z,59.30
2018-05-14T10:59:56.456Z,57.93
2018-05-14T11:02:32.071Z,60.00
2018-05-14T11:05:06.822Z,55.37
2018-05-14T11:07:41.618Z,52.30
2018-05-14T11:10:16.348Z,60.13
2018-05-14T11:12:51.031Z,49.37
2018-05-14T11:15:25.628Z,50.23
2018-05-14T11:17:55.425Z,47.90
2018-05-14T11:20:30.070Z,57.90
2018-05-14T11:23:04.631Z,55.70
2018-05-14T11:25:39.159Z,50.30
2018-05-14T11:28:13.729Z,50.87
2018-05-14T11:30:48.549Z,46.87
2018-05-14T11:33:23.193Z,43.13
2018-05-14T11:35:58.718Z,43.30
2018-05-14T11:38:34.133Z,40.37
2018-05-14T11:41:08.916Z,40.60
2018-05-14T11:43:43.582Z,34.77
2018-05-14T11:46:18.676Z,37.87
2018-05-14T11:48:54.086Z,36.77
2018-05-14T11:51:28.739Z,36.00
2018-05-14T11:54:03.595Z,36.63
2018-05-14T11:56:38.336Z,37.43
2018-05-14T11:59:13.173Z,33.87
2018-05-14T12:01:47.811Z,34.67
2018-05-14T12:04:22.417Z,30.93
2018-05-14T12:06:57.044Z,31.60
2018-05-14T12:09:31.647Z,31.50
2018-05-14T12:12:06.313Z,33.27
2018-05-14T12:14:41.142Z,30.20
2018-05-14T12:17:15.840Z,35.63
2018-05-14T12:19:50.492Z,32.23
2018-05-14T12:22:25.016Z,26.70
2018-05-14T12:24:59.615Z,27.00
2018-05-14T12:27:34.276Z,28.30
2018-05-14T12:30:08.908Z,28.27
2018-05-14T12:32:43.753Z,29.03
2018-05-14T12:35:18.512Z,29.00
2018-05-14T12:37:53.255Z,26.60
2018-05-14T12:40:28.619Z,27.57
2018-05-14T12:43:04.167Z,24.23
2018-05-14T12:45:38.767Z,24.40
2018-05-14T12:48:13.439Z,23.50
2018-05-14T12:50:48.231Z,24.13
2018-05-14T12:53:23.599Z,27.00
2018-05-14T12:55:58.930Z,23.67
2018-05-14T12:58:33.520Z,23.43
2018-05-14T13:01:08.089Z,32.83
2018-05-14T13:03:42.768Z,24.90
2018-05-14T13:06:17.410Z,26.23
2018-05-14T13:08:48.809Z,22.83
2018-05-14T13:11:23.531Z,23.00
2018-05-14T13:13:58.211Z,16.83
2018-05-14T13:16:32.789Z,17.43
2018-05-14T13:19:04.081Z,21.47
2018-05-14T13:21:33.921Z,17.10
2018-05-14T13:24:03.168Z,16.80
2018-05-14T13:26:33.241Z,14.43
2018-05-14T13:29:02.325Z,18.53
2018-05-14T13:31:32.137Z,14.23
2018-05-14T13:34:02.909Z,15.40
2018-05-14T13:36:32.823Z,14.00
2018-05-14T13:39:01.999Z,15.13
2018-05-14T13:41:31.899Z,15.30
2018-05-14T13:44:01.112Z,13.30
2018-05-14T13:46:31.139Z,13.50
2018-05-14T13:49:00.346Z,17.13
2018-05-14T13:51:29.360Z,18.87
2018-05-14T13:53:58.646Z,19.40
2018-05-14T13:56:28.409Z,12.60
2018-05-14T13:58:57.354Z,17.93
2018-05-14T14:01:26.374Z,16.37
2018-05-14T14:03:55.623Z,14.53
2018-05-14T14:06:25.502Z,10.47
2018-05-14T14:08:54.751Z,11.07
2018-05-14T14:11:24.094Z,14.40
2018-05-14T14:13:53.207Z,12.40
2018-05-14T14:16:22.161Z,14.03
2018-05-14T14:18:51.370Z,16.60
2018-05-14T14:21:20.511Z,10.53
2018-05-14T14:23:49.695Z,9.57
2018-05-14T14:26:19.404Z,11.13
2018-05-14T14:28:48.564Z,9.20
2018-05-14T14:31:17.703Z,16.50
2018-05-14T14:33:46.827Z,10.27
2018-05-14T14:36:15.817Z,9.20
2018-05-14T14:38:44.766Z,12.87
2018-05-14T14:41:14.709Z,8.90
2018-05-14T14:43:44.578Z,8.63
2018-05-14T14:46:13.727Z,10.13
2018-05-14T14:48:42.772Z,11.37
2018-05-14T14:51:12.160Z,9.50
2018-05-14T14:53:41.323Z,8.33
2018-05-14T14:56:10.526Z,11.43
2018-05-14T14:58:39.673Z,8.27
2018-05-14T15:01:09.640Z,10.17
2018-05-14T15:03:41.317Z,7.23
2018-05-14T15:06:10.488Z,8.07
2018-05-14T15:08:39.635Z,10.50
2018-05-14T15:11:09.602Z,8.77
2018-05-14T15:13:38.749Z,8.07
2018-05-14T15:16:08.665Z,8.13
2018-05-14T15:18:38.578Z,8.00
2018-05-14T15:21:07.578Z,7.43
2018-05-14T15:23:36.591Z,8.53
2018-05-14T15:26:06.655Z,7.30
2018-05-14T15:28:35.779Z,11.83
2018-05-14T15:31:04.882Z,9.40
2018-05-14T15:33:34.038Z,6.70
2018-05-14T15:36:03.128Z,9.33
2018-05-14T15:38:32.968Z,9.40
2018-05-14T15:41:02.040Z,7.10
2018-05-14T15:43:32.251Z,5.93
2018-05-14T15:46:01.327Z,8.00
2018-05-14T15:48:31.204Z,7.80
2018-05-14T15:51:00.705Z,6.60
2018-05-14T15:53:29.836Z,7.00
2018-05-14T15:55:58.936Z,8.30
2018-05-14T15:58:28.083Z,10.13
2018-05-14T16:00:57.231Z,9.80
2018-05-14T16:03:26.371Z,9.10
2018-05-14T16:05:56.137Z,14.37
2018-05-14T16:08:25.322Z,9.40
2018-05-14T16:10:54.429Z,7.57
2018-05-14T16:13:23.586Z,6.53
2018-05-14T16:15:53.305Z,8.23
2018-05-14T16:18:23.798Z,12.88
2018-05-14T16:20:53.023Z,6.73
2018-05-14T16:23:22.615Z,6.80
2018-05-14T16:25:51.773Z,5.40
2018-05-14T16:28:21.750Z,6.60
2018-05-14T16:30:50.539Z,9.60
2018-05-14T16:33:19.997Z,8.02
2018-05-14T16:35:49.091Z,12.07
2018-05-14T16:38:18.783Z,7.18
2018-05-14T16:40:49.165Z,7.47
2018-05-14T16:43:18.045Z,6.20
2018-05-14T16:45:47.138Z,6.80
2018-05-14T16:48:16.390Z,6.93
2018-05-14T16:50:45.620Z,12.70
2018-05-14T16:53:15.606Z,6.87
2018-05-14T16:55:44.564Z,7.73
2018-05-14T16:58:13.826Z,8.10
2018-05-14T17:00:42.996Z,7.43
2018-05-14T17:03:12.062Z,16.27
2018-05-14T17:05:41.288Z,6.67
2018-05-14T17:08:11.333Z,6.67
2018-05-14T17:10:40.498Z,10.97
2018-05-14T17:13:09.744Z,7.93
2018-05-14T17:15:39.173Z,27.27
2018-05-14T17:18:09.005Z,9.67
2018-05-14T17:20:38.278Z,7.53
2018-05-14T17:23:07.393Z,7.67
2018-05-14T17:25:36.778Z,6.00
2018-05-14T17:28:05.874Z,11.10
2018-05-14T17:30:35.380Z,10.47
2018-05-14T17:33:05.794Z,6.83
2018-05-14T17:35:34.952Z,7.17
2018-05-14T17:38:04.199Z,11.73
2018-05-14T17:40:33.405Z,8.40
2018-05-14T17:43:02.552Z,7.67
2018-05-14T17:45:31.615Z,15.03
2018-05-14T17:48:01.589Z,7.00
2018-05-14T17:50:30.876Z,7.87
2018-05-14T17:53:00.964Z,10.23
2018-05-14T17:55:30.063Z,7.63
2018-05-14T17:57:59.366Z,10.53
2018-05-14T18:00:33.985Z,6.60
2018-05-14T18:03:08.672Z,7.30
2018-05-14T18:05:43.266Z,10.10
2018-05-14T18:08:17.962Z,11.70
2018-05-14T18:10:52.917Z,7.53
2018-05-14T18:13:27.821Z,7.13
2018-05-14T18:16:03.288Z,7.83
2018-05-14T18:18:37.904Z,7.47
2018-05-14T18:21:12.274Z,8.13
2018-05-14T18:23:47.676Z,11.20
2018-05-14T18:26:26.127Z,7.50
2018-05-14T18:29:09.343Z,10.20
2018-05-14T18:31:44.759Z,7.50
2018-05-14T18:34:16.581Z,8.00
2018-05-14T18:36:46.509Z,8.17
2018-05-14T18:39:15.791Z,7.80
2018-05-14T18:41:45.787Z,10.10
2018-05-14T18:44:14.573Z,9.10
2018-05-14T18:46:43.698Z,12.40
2018-05-14T18:49:12.663Z,8.03
2018-05-14T18:51:42.108Z,10.30
2018-05-14T18:54:11.063Z,10.10
2018-05-14T18:56:40.033Z,9.77
2018-05-14T18:59:09.317Z,13.10
2018-05-14T19:01:39.868Z,11.03
2018-05-14T19:04:09.079Z,13.70
2018-05-14T19:06:39.590Z,9.83
2018-05-14T19:09:08.664Z,13.90
2018-05-14T19:11:44.116Z,7.70
2018-05-14T19:14:13.281Z,7.77
2018-05-14T19:16:47.699Z,8.37
2018-05-14T19:19:17.798Z,10.83
2018-05-14T19:21:48.384Z,7.70
2018-05-14T19:24:17.271Z,11.17
2018-05-14T19:26:46.447Z,14.30
2018-05-14T19:29:21.928Z,10.13
2018-05-14T19:31:51.257Z,10.67
2018-05-14T19:34:25.786Z,12.13
2018-05-14T19:36:55.636Z,16.50
2018-05-14T19:39:30.013Z,10.07
2018-05-14T19:41:59.021Z,15.17
2018-05-14T19:44:28.977Z,9.80
2018-05-14T19:46:58.351Z,13.43
2018-05-14T19:49:28.228Z,10.50
2018-05-14T19:51:57.572Z,10.20
2018-05-14T19:54:33.444Z,11.13
2018-05-14T19:57:08.016Z,9.60
2018-05-14T19:59:42.703Z,10.67
2018-05-14T20:02:17.321Z,13.50
2018-05-14T20:04:52.120Z,10.53
2018-05-14T20:07:26.780Z,9.30
2018-05-14T20:10:01.422Z,10.47
2018-05-14T20:12:30.501Z,10.40
2018-05-14T20:14:59.615Z,16.17
2018-05-14T20:17:28.635Z,13.73
2018-05-14T20:19:57.751Z,10.77
2018-05-14T20:22:26.848Z,9.60
2018-05-14T20:24:55.985Z,15.50
2018-05-14T20:27:24.959Z,11.73
2018-05-14T20:29:54.492Z,10.00
2018-05-14T20:32:23.640Z,9.60
2018-05-14T20:34:53.961Z,11.83
2018-05-14T20:37:23.088Z,14.33
2018-05-14T20:39:52.559Z,11.63
2018-05-14T20:42:22.481Z,10.40
2018-05-14T20:44:52.329Z,11.23
2018-05-14T20:47:22.524Z,11.30
2018-05-14T20:49:57.112Z,11.37
2018-05-14T20:52:31.829Z,14.77
2018-05-14T20:55:00.891Z,10.60
2018-05-14T21:10:35.750Z,12.00
2018-05-14T21:13:10.295Z,11.70
2018-05-14T21:15:44.902Z,10.40
2018-05-14T21:18:14.857Z,11.17
2018-05-14T21:20:49.773Z,13.60
2018-05-14T21:23:25.239Z,16.03
2018-05-14T21:26:00.922Z,10.73
2018-05-14T21:28:35.559Z,11.73
2018-05-14T21:31:11.088Z,16.43
2018-05-14T21:33:45.751Z,13.23
2018-05-14T21:36:21.155Z,15.30
2018-05-14T21:38:56.580Z,11.97
2018-05-14T21:41:31.135Z,16.87
2018-05-14T21:44:06.028Z,13.43
2018-05-14T21:46:40.741Z,13.17
2018-05-14T21:49:15.590Z,15.30
2018-05-14T21:51:45.417Z,16.73
2018-05-14T21:54:20.043Z,11.63
2018-05-14T21:56:54.726Z,17.10
2018-05-14T21:59:30.285Z,15.53
2018-05-14T22:02:05.044Z,17.43
2018-05-14T22:04:39.879Z,12.63
2018-05-14T22:07:16.121Z,19.23
2018-05-14T22:09:50.769Z,12.37
2018-05-14T22:12:25.537Z,13.20
2018-05-14T22:15:00.932Z,12.57
2018-05-14T22:17:35.563Z,19.40
2018-05-14T22:20:10.218Z,21.23
2018-05-14T22:22:45.028Z,11.30
2018-05-14T22:25:19.709Z,15.20
2018-05-14T22:27:54.394Z,11.97
2018-05-14T22:30:28.988Z,13.93
2018-05-14T22:33:03.559Z,13.77
2018-05-14T22:35:38.119Z,11.80
2018-05-14T22:38:13.502Z,11.30
2018-05-14T22:40:48.982Z,13.00
2018-05-14T22:43:23.701Z,12.50
2018-05-14T22:45:58.409Z,18.73
2018-05-14T22:48:33.197Z,13.50
2018-05-14T22:51:07.795Z,10.97
2018-05-14T22:53:42.411Z,11.53
2018-05-14T22:56:17.081Z,14.63
2018-05-14T22:58:51.742Z,12.50
2018-05-14T23:01:27.213Z,11.60
2018-05-14T23:04:01.727Z,16.40
2018-05-14T23:06:36.366Z,11.47
2018-05-14T23:09:11.081Z,11.97
2018-05-14T23:11:40.175Z,13.03
2018-05-14T23:14:14.840Z,13.93
2018-05-14T23:16:49.410Z,15.10
2018-05-14T23:19:24.798Z,14.13
2018-05-14T23:21:59.395Z,18.10
2018-05-14T23:24:34.003Z,13.40
2018-05-14T23:27:09.363Z,11.73
2018-05-14T23:29:44.006Z,21.27
2018-05-14T23:32:18.600Z,16.30
2018-05-14T23:34:54.127Z,15.03
2018-05-14T23:37:28.755Z,12.47
2018-05-14T23:40:04.397Z,11.50
2018-05-14T23:42:39.187Z,16.20
2018-05-14T23:45:13.781Z,16.20
2018-05-14T23:47:48.283Z,11.03
2018-05-14T23:50:22.943Z,11.77
2018-05-14T23:52:58.267Z,18.83
2018-05-14T23:55:33.275Z,14.33
2018-05-14T23:58:08.050Z,13.57
